sensor_id;sensor_type;location;lat;lon;timestamp;P1;durP1;ratioP1;P2;durP2;ratioP2
52320;SDS011;38261;54.090;13.382;2023-01-16T00:00:21;2.57;;;1.00;;
52320;SDS011;38261;54.090;13.382;2023-01-16T00:01:43;1.57;;;1.00;;
52320;SDS011;38261;54.090;13.382;2023-01-16T00:03:05;2.83;;;1.00;;
52320;SDS011;38261;54.090;13.382;2023-01-16T00:04:27;1.60;;;1.20;;
52320;SDS011;38261;54.090;13.382;2023-01-16T00:05:49;4.90;;;1.23;;
52320;SDS011;38261;54.090;13.382;2023-01-16T00:07:11;2.70;;;1.17;;
52320;SDS011;38261;54.090;13.382;2023-01-16T00:08:33;3.00;;;1.27;;
52320;SDS011;38261;54.090;13.382;2023-01-16T00:09:56;1.20;;;1.10;;
52320;SDS011;38261;54.090;13.382;2023-01-16T00:11:18;1.20;;;0.80;;
52320;SDS011;38261;54.090;13.382;2023-01-16T00:12:40;3.27;;;1.27;;
52320;SDS011;38261;54.090;13.382;2023-01-16T00:14:02;2.57;;;0.80;;
52320;SDS011;38261;54.090;13.382;2023-01-16T00:15:25;2.70;;;1.00;;
52320;SDS011;38261;54.090;13.382;2023-01-16T00:16:47;3.47;;;0.80;;
52320;SDS011;38261;54.090;13.382;2023-01-16T00:18:09;3.07;;;1.20;;
52320;SDS011;38261;54.090;13.382;2023-01-16T00:19:31;2.57;;;0.90;;
52320;SDS011;38261;54.090;13.382;2023-01-16T00:20:53;1.20;;;0.90;;
52320;SDS011;38261;54.090;13.382;2023-01-16T00:22:15;3.43;;;1.00;;
52320;SDS011;38261;54.090;13.382;2023-01-16T00:23:37;3.27;;;1.30;;
52320;SDS011;38261;54.090;13.382;2023-01-16T00:25:00;3.70;;;1.20;;
52320;SDS011;38261;54.090;13.382;2023-01-16T00:26:22;2.63;;;1.00;;
52320;SDS011;38261;54.090;13.382;2023-01-16T00:27:45;2.50;;;0.90;;
52320;SDS011;38261;54.090;13.382;2023-01-16T00:29:07;2.90;;;1.13;;
52320;SDS011;38261;54.090;13.382;2023-01-16T00:30:29;7.90;;;2.10;;
52320;SDS011;38261;54.090;13.382;2023-01-16T00:31:52;3.97;;;1.10;;
52320;SDS011;38261;54.090;13.382;2023-01-16T00:33:14;8.40;;;1.10;;
52320;SDS011;38261;54.090;13.382;2023-01-16T00:34:36;5.80;;;0.90;;
52320;SDS011;38261;54.090;13.382;2023-01-16T00:35:59;4.30;;;1.17;;
52320;SDS011;38261;54.090;13.382;2023-01-16T00:37:22;9.30;;;1.00;;
52320;SDS011;38261;54.090;13.382;2023-01-16T00:38:44;5.30;;;1.00;;
52320;SDS011;38261;54.090;13.382;2023-01-16T00:40:06;5.67;;;1.10;;
52320;SDS011;38261;54.090;13.382;2023-01-16T00:41:29;1.33;;;1.00;;
52320;SDS011;38261;54.090;13.382;2023-01-16T00:42:51;4.30;;;0.80;;
52320;SDS011;38261;54.090;13.382;2023-01-16T00:44:13;1.93;;;0.80;;
52320;SDS011;38261;54.090;13.382;2023-01-16T00:45:35;4.77;;;2.70;;
52320;SDS011;38261;54.090;13.382;2023-01-16T00:46:57;3.67;;;1.43;;
52320;SDS011;38261;54.090;13.382;2023-01-16T00:48:20;3.93;;;1.20;;
52320;SDS011;38261;54.090;13.382;2023-01-16T00:49:42;1.00;;;0.80;;
52320;SDS011;38261;54.090;13.382;2023-01-16T00:51:04;3.17;;;1.10;;
52320;SDS011;38261;54.090;13.382;2023-01-16T00:52:26;1.77;;;1.00;;
52320;SDS011;38261;54.090;13.382;2023-01-16T00:53:48;1.97;;;0.97;;
52320;SDS011;38261;54.090;13.382;2023-01-16T00:55:10;2.10;;;0.90;;
52320;SDS011;38261;54.090;13.382;2023-01-16T00:56:32;1.13;;;0.80;;
52320;SDS011;38261;54.090;13.382;2023-01-16T00:57:55;1.83;;;1.03;;
52320;SDS011;38261;54.090;13.382;2023-01-16T00:59:17;2.20;;;1.03;;
52320;SDS011;38261;54.090;13.382;2023-01-16T01:00:39;6.93;;;1.40;;
52320;SDS011;38261;54.090;13.382;2023-01-16T01:02:01;4.10;;;1.00;;
52320;SDS011;38261;54.090;13.382;2023-01-16T01:03:23;2.23;;;1.00;;
52320;SDS011;38261;54.090;13.382;2023-01-16T01:04:45;2.07;;;1.03;;
52320;SDS011;38261;54.090;13.382;2023-01-16T01:06:08;1.80;;;1.10;;
52320;SDS011;38261;54.090;13.382;2023-01-16T01:07:32;2.70;;;1.00;;
52320;SDS011;38261;54.090;13.382;2023-01-16T01:08:55;7.43;;;1.13;;
52320;SDS011;38261;54.090;13.382;2023-01-16T01:10:17;4.20;;;0.97;;
52320;SDS011;38261;54.090;13.382;2023-01-16T01:11:40;1.00;;;0.83;;
52320;SDS011;38261;54.090;13.382;2023-01-16T01:13:02;2.83;;;1.10;;
52320;SDS011;38261;54.090;13.382;2023-01-16T01:14:24;2.43;;;0.80;;
52320;SDS011;38261;54.090;13.382;2023-01-16T01:15:47;2.30;;;1.00;;
52320;SDS011;38261;54.090;13.382;2023-01-16T01:17:09;2.93;;;1.40;;
52320;SDS011;38261;54.090;13.382;2023-01-16T01:18:31;1.70;;;1.10;;
52320;SDS011;38261;54.090;13.382;2023-01-16T01:19:53;6.30;;;1.10;;
52320;SDS011;38261;54.090;13.382;2023-01-16T01:21:16;2.17;;;1.00;;
52320;SDS011;38261;54.090;13.382;2023-01-16T01:22:38;2.90;;;1.10;;
52320;SDS011;38261;54.090;13.382;2023-01-16T01:24:00;5.67;;;1.17;;
52320;SDS011;38261;54.090;13.382;2023-01-16T01:25:22;2.30;;;1.10;;
52320;SDS011;38261;54.090;13.382;2023-01-16T01:26:45;3.37;;;0.93;;
52320;SDS011;38261;54.090;13.382;2023-01-16T01:28:07;7.57;;;1.10;;
52320;SDS011;38261;54.090;13.382;2023-01-16T01:29:29;3.43;;;0.97;;
52320;SDS011;38261;54.090;13.382;2023-01-16T01:30:52;1.93;;;0.90;;
52320;SDS011;38261;54.090;13.382;2023-01-16T01:32:14;2.30;;;1.27;;
52320;SDS011;38261;54.090;13.382;2023-01-16T01:33:36;3.20;;;1.00;;
52320;SDS011;38261;54.090;13.382;2023-01-16T01:34:59;2.23;;;1.20;;
52320;SDS011;38261;54.090;13.382;2023-01-16T01:36:22;1.83;;;1.20;;
52320;SDS011;38261;54.090;13.382;2023-01-16T01:37:44;1.77;;;1.27;;
52320;SDS011;38261;54.090;13.382;2023-01-16T01:39:06;2.20;;;1.00;;
52320;SDS011;38261;54.090;13.382;2023-01-16T01:40:28;2.10;;;1.10;;
52320;SDS011;38261;54.090;13.382;2023-01-16T01:41:50;9.07;;;1.83;;
52320;SDS011;38261;54.090;13.382;2023-01-16T01:43:13;2.63;;;1.30;;
52320;SDS011;38261;54.090;13.382;2023-01-16T01:44:53;2.50;;;1.20;;
52320;SDS011;38261;54.090;13.382;2023-01-16T01:49:35;2.13;;;1.17;;
52320;SDS011;38261;54.090;13.382;2023-01-16T01:51:00;3.67;;;1.23;;
52320;SDS011;38261;54.090;13.382;2023-01-16T01:52:27;2.63;;;1.67;;
52320;SDS011;38261;54.090;13.382;2023-01-16T01:53:56;2.13;;;1.70;;
52320;SDS011;38261;54.090;13.382;2023-01-16T01:55:24;8.60;;;1.90;;
52320;SDS011;38261;54.090;13.382;2023-01-16T01:56:47;3.63;;;1.10;;
52320;SDS011;38261;54.090;13.382;2023-01-16T01:58:14;3.33;;;1.27;;
52320;SDS011;38261;54.090;13.382;2023-01-16T01:59:46;3.63;;;1.40;;
52320;SDS011;38261;54.090;13.382;2023-01-16T02:01:12;1.90;;;1.33;;
52320;SDS011;38261;54.090;13.382;2023-01-16T02:02:36;1.33;;;1.03;;
52320;SDS011;38261;54.090;13.382;2023-01-16T02:04:04;4.23;;;1.43;;
52320;SDS011;38261;54.090;13.382;2023-01-16T02:05:47;4.50;;;1.50;;
52320;SDS011;38261;54.090;13.382;2023-01-16T02:07:12;4.10;;;1.13;;
52320;SDS011;38261;54.090;13.382;2023-01-16T02:08:37;2.40;;;1.20;;
52320;SDS011;38261;54.090;13.382;2023-01-16T02:10:14;4.37;;;1.20;;
52320;SDS011;38261;54.090;13.382;2023-01-16T02:12:00;2.00;;;1.17;;
52320;SDS011;38261;54.090;13.382;2023-01-16T02:13:28;5.53;;;1.83;;
52320;SDS011;38261;54.090;13.382;2023-01-16T02:14:50;2.10;;;1.10;;
52320;SDS011;38261;54.090;13.382;2023-01-16T02:16:13;4.27;;;1.60;;
52320;SDS011;38261;54.090;13.382;2023-01-16T02:17:54;2.50;;;1.60;;
52320;SDS011;38261;54.090;13.382;2023-01-16T02:23:59;3.17;;;1.70;;
52320;SDS011;38261;54.090;13.382;2023-01-16T02:26:42;5.50;;;1.73;;
52320;SDS011;38261;54.090;13.382;2023-01-16T02:41:17;1.43;;;1.33;;
52320;SDS011;38261;54.090;13.382;2023-01-16T02:48:36;7.50;;;1.93;;
52320;SDS011;38261;54.090;13.382;2023-01-16T02:53:34;3.93;;;2.07;;
52320;SDS011;38261;54.090;13.382;2023-01-16T02:55:02;2.30;;;1.83;;
52320;SDS011;38261;54.090;13.382;2023-01-16T02:56:39;2.93;;;1.57;;
52320;SDS011;38261;54.090;13.382;2023-01-16T02:58:07;3.30;;;2.07;;
52320;SDS011;38261;54.090;13.382;2023-01-16T02:59:32;3.33;;;1.80;;
52320;SDS011;38261;54.090;13.382;2023-01-16T03:00:56;7.60;;;1.60;;
52320;SDS011;38261;54.090;13.382;2023-01-16T03:02:20;3.10;;;1.80;;
52320;SDS011;38261;54.090;13.382;2023-01-16T03:05:17;7.90;;;2.20;;
52320;SDS011;38261;54.090;13.382;2023-01-16T03:07:00;2.67;;;1.73;;
52320;SDS011;38261;54.090;13.382;2023-01-16T03:08:39;4.43;;;2.20;;
52320;SDS011;38261;54.090;13.382;2023-01-16T03:10:42;4.00;;;1.80;;
52320;SDS011;38261;54.090;13.382;2023-01-16T03:14:05;6.90;;;2.60;;
52320;SDS011;38261;54.090;13.382;2023-01-16T03:15:39;4.40;;;1.87;;
52320;SDS011;38261;54.090;13.382;2023-01-16T03:18:35;2.23;;;1.90;;
52320;SDS011;38261;54.090;13.382;2023-01-16T03:20:25;5.40;;;2.70;;
52320;SDS011;38261;54.090;13.382;2023-01-16T03:26:34;6.33;;;2.10;;
52320;SDS011;38261;54.090;13.382;2023-01-16T03:29:41;2.23;;;2.00;;
52320;SDS011;38261;54.090;13.382;2023-01-16T03:33:19;4.87;;;2.13;;
52320;SDS011;38261;54.090;13.382;2023-01-16T03:34:56;3.50;;;1.90;;
52320;SDS011;38261;54.090;13.382;2023-01-16T03:36:29;3.87;;;2.10;;
52320;SDS011;38261;54.090;13.382;2023-01-16T03:37:56;2.97;;;2.73;;
52320;SDS011;38261;54.090;13.382;2023-01-16T03:39:24;3.00;;;1.83;;
52320;SDS011;38261;54.090;13.382;2023-01-16T03:40:49;2.30;;;2.10;;
52320;SDS011;38261;54.090;13.382;2023-01-16T03:42:23;2.37;;;1.93;;
52320;SDS011;38261;54.090;13.382;2023-01-16T03:43:51;6.87;;;2.30;;
52320;SDS011;38261;54.090;13.382;2023-01-16T03:45:19;7.30;;;2.20;;
52320;SDS011;38261;54.090;13.382;2023-01-16T03:46:48;10.57;;;2.10;;
52320;SDS011;38261;54.090;13.382;2023-01-16T03:48:18;2.47;;;2.27;;
52320;SDS011;38261;54.090;13.382;2023-01-16T03:49:46;5.10;;;2.40;;
52320;SDS011;38261;54.090;13.382;2023-01-16T03:51:13;4.90;;;2.30;;
52320;SDS011;38261;54.090;13.382;2023-01-16T03:52:42;2.60;;;2.10;;
52320;SDS011;38261;54.090;13.382;2023-01-16T03:54:10;2.83;;;2.50;;
52320;SDS011;38261;54.090;13.382;2023-01-16T03:57:57;6.73;;;2.27;;
52320;SDS011;38261;54.090;13.382;2023-01-16T03:59:26;5.27;;;2.73;;
52320;SDS011;38261;54.090;13.382;2023-01-16T04:00:51;2.30;;;2.07;;
52320;SDS011;38261;54.090;13.382;2023-01-16T04:04:16;3.83;;;2.10;;
52320;SDS011;38261;54.090;13.382;2023-01-16T04:05:47;2.23;;;2.10;;
52320;SDS011;38261;54.090;13.382;2023-01-16T04:07:26;1.97;;;1.77;;
52320;SDS011;38261;54.090;13.382;2023-01-16T04:08:56;10.43;;;2.20;;
52320;SDS011;38261;54.090;13.382;2023-01-16T04:10:24;2.70;;;2.47;;
52320;SDS011;38261;54.090;13.382;2023-01-16T04:11:48;5.70;;;2.40;;
52320;SDS011;38261;54.090;13.382;2023-01-16T04:13:16;3.83;;;1.90;;
52320;SDS011;38261;54.090;13.382;2023-01-16T04:14:41;4.97;;;2.13;;
52320;SDS011;38261;54.090;13.382;2023-01-16T04:16:05;4.63;;;2.37;;
52320;SDS011;38261;54.090;13.382;2023-01-16T04:17:31;6.20;;;2.20;;
52320;SDS011;38261;54.090;13.382;2023-01-16T04:18:54;4.23;;;2.43;;
52320;SDS011;38261;54.090;13.382;2023-01-16T04:20:18;6.37;;;2.30;;
52320;SDS011;38261;54.090;13.382;2023-01-16T04:21:45;8.77;;;3.30;;
52320;SDS011;38261;54.090;13.382;2023-01-16T04:23:08;3.00;;;2.30;;
52320;SDS011;38261;54.090;13.382;2023-01-16T04:24:30;5.93;;;2.30;;
52320;SDS011;38261;54.090;13.382;2023-01-16T04:25:52;8.70;;;2.33;;
52320;SDS011;38261;54.090;13.382;2023-01-16T04:27:15;4.60;;;2.17;;
52320;SDS011;38261;54.090;13.382;2023-01-16T04:28:39;5.97;;;2.50;;
52320;SDS011;38261;54.090;13.382;2023-01-16T04:30:01;4.20;;;1.93;;
52320;SDS011;38261;54.090;13.382;2023-01-16T04:31:23;6.30;;;2.30;;
52320;SDS011;38261;54.090;13.382;2023-01-16T04:32:46;4.87;;;1.87;;
52320;SDS011;38261;54.090;13.382;2023-01-16T04:34:08;7.33;;;2.17;;
52320;SDS011;38261;54.090;13.382;2023-01-16T04:35:30;4.70;;;2.30;;
52320;SDS011;38261;54.090;13.382;2023-01-16T04:36:52;8.10;;;2.40;;
52320;SDS011;38261;54.090;13.382;2023-01-16T04:38:14;5.87;;;2.50;;
52320;SDS011;38261;54.090;13.382;2023-01-16T04:39:36;7.73;;;3.40;;
52320;SDS011;38261;54.090;13.382;2023-01-16T04:40:58;4.53;;;2.67;;
52320;SDS011;38261;54.090;13.382;2023-01-16T04:42:21;4.37;;;2.57;;
52320;SDS011;38261;54.090;13.382;2023-01-16T04:43:43;5.93;;;2.17;;
52320;SDS011;38261;54.090;13.382;2023-01-16T04:45:05;5.73;;;2.30;;
52320;SDS011;38261;54.090;13.382;2023-01-16T04:46:27;5.47;;;2.60;;
52320;SDS011;38261;54.090;13.382;2023-01-16T04:47:50;6.37;;;1.90;;
52320;SDS011;38261;54.090;13.382;2023-01-16T04:49:13;6.00;;;2.00;;
52320;SDS011;38261;54.090;13.382;2023-01-16T04:50:35;4.43;;;2.80;;
52320;SDS011;38261;54.090;13.382;2023-01-16T04:51:57;3.50;;;2.30;;
52320;SDS011;38261;54.090;13.382;2023-01-16T04:53:19;2.50;;;2.20;;
52320;SDS011;38261;54.090;13.382;2023-01-16T04:54:41;2.63;;;2.03;;
52320;SDS011;38261;54.090;13.382;2023-01-16T04:56:03;6.20;;;1.97;;
52320;SDS011;38261;54.090;13.382;2023-01-16T04:57:26;6.10;;;2.60;;
52320;SDS011;38261;54.090;13.382;2023-01-16T04:58:48;2.93;;;1.60;;
52320;SDS011;38261;54.090;13.382;2023-01-16T05:00:12;8.90;;;2.13;;
52320;SDS011;38261;54.090;13.382;2023-01-16T05:01:34;3.40;;;1.90;;
52320;SDS011;38261;54.090;13.382;2023-01-16T05:02:59;3.23;;;1.80;;
52320;SDS011;38261;54.090;13.382;2023-01-16T05:04:21;4.60;;;1.63;;
52320;SDS011;38261;54.090;13.382;2023-01-16T05:05:43;1.80;;;1.60;;
52320;SDS011;38261;54.090;13.382;2023-01-16T05:07:05;6.37;;;2.20;;
52320;SDS011;38261;54.090;13.382;2023-01-16T05:08:27;4.60;;;1.77;;
52320;SDS011;38261;54.090;13.382;2023-01-16T05:09:50;7.17;;;1.73;;
52320;SDS011;38261;54.090;13.382;2023-01-16T05:11:12;3.03;;;2.30;;
52320;SDS011;38261;54.090;13.382;2023-01-16T05:12:34;3.83;;;1.77;;
52320;SDS011;38261;54.090;13.382;2023-01-16T05:13:56;3.53;;;1.60;;
52320;SDS011;38261;54.090;13.382;2023-01-16T05:15:18;4.60;;;1.57;;
52320;SDS011;38261;54.090;13.382;2023-01-16T05:16:40;3.80;;;1.83;;
52320;SDS011;38261;54.090;13.382;2023-01-16T05:18:03;4.70;;;1.60;;
52320;SDS011;38261;54.090;13.382;2023-01-16T05:19:26;3.53;;;1.40;;
52320;SDS011;38261;54.090;13.382;2023-01-16T05:20:48;2.30;;;1.80;;
52320;SDS011;38261;54.090;13.382;2023-01-16T05:22:11;6.63;;;1.43;;
52320;SDS011;38261;54.090;13.382;2023-01-16T05:23:33;2.33;;;1.43;;
52320;SDS011;38261;54.090;13.382;2023-01-16T05:24:56;2.90;;;1.43;;
52320;SDS011;38261;54.090;13.382;2023-01-16T05:26:18;2.63;;;1.23;;
52320;SDS011;38261;54.090;13.382;2023-01-16T05:27:40;2.70;;;1.83;;
52320;SDS011;38261;54.090;13.382;2023-01-16T05:29:02;3.27;;;1.70;;
52320;SDS011;38261;54.090;13.382;2023-01-16T05:30:25;3.63;;;1.37;;
52320;SDS011;38261;54.090;13.382;2023-01-16T05:31:47;6.17;;;1.93;;
52320;SDS011;38261;54.090;13.382;2023-01-16T05:33:09;8.47;;;1.30;;
52320;SDS011;38261;54.090;13.382;2023-01-16T05:34:31;3.23;;;1.33;;
52320;SDS011;38261;54.090;13.382;2023-01-16T05:35:53;1.23;;;1.13;;
52320;SDS011;38261;54.090;13.382;2023-01-16T05:37:16;4.80;;;1.50;;
52320;SDS011;38261;54.090;13.382;2023-01-16T05:38:38;4.03;;;1.33;;
52320;SDS011;38261;54.090;13.382;2023-01-16T05:40:00;2.83;;;1.60;;
52320;SDS011;38261;54.090;13.382;2023-01-16T05:41:22;6.30;;;1.50;;
52320;SDS011;38261;54.090;13.382;2023-01-16T05:42:45;2.10;;;1.63;;
52320;SDS011;38261;54.090;13.382;2023-01-16T05:44:09;2.30;;;1.50;;
52320;SDS011;38261;54.090;13.382;2023-01-16T05:45:31;3.00;;;1.43;;
52320;SDS011;38261;54.090;13.382;2023-01-16T05:46:53;1.10;;;1.00;;
52320;SDS011;38261;54.090;13.382;2023-01-16T05:48:15;7.93;;;1.53;;
52320;SDS011;38261;54.090;13.382;2023-01-16T05:49:37;2.40;;;1.40;;
52320;SDS011;38261;54.090;13.382;2023-01-16T05:51:00;3.37;;;1.20;;
52320;SDS011;38261;54.090;13.382;2023-01-16T05:52:24;3.47;;;1.30;;
52320;SDS011;38261;54.090;13.382;2023-01-16T05:53:50;3.43;;;1.50;;
52320;SDS011;38261;54.090;13.382;2023-01-16T05:55:13;2.43;;;1.47;;
52320;SDS011;38261;54.090;13.382;2023-01-16T05:56:35;4.13;;;1.27;;
52320;SDS011;38261;54.090;13.382;2023-01-16T05:57:57;1.80;;;1.40;;
52320;SDS011;38261;54.090;13.382;2023-01-16T05:59:19;3.40;;;1.33;;
52320;SDS011;38261;54.090;13.382;2023-01-16T06:00:41;7.20;;;1.60;;
52320;SDS011;38261;54.090;13.382;2023-01-16T06:02:04;2.33;;;1.50;;
52320;SDS011;38261;54.090;13.382;2023-01-16T06:03:26;3.90;;;1.57;;
52320;SDS011;38261;54.090;13.382;2023-01-16T06:04:48;8.43;;;2.00;;
52320;SDS011;38261;54.090;13.382;2023-01-16T06:06:10;3.00;;;1.43;;
52320;SDS011;38261;54.090;13.382;2023-01-16T06:07:32;4.93;;;1.80;;
52320;SDS011;38261;54.090;13.382;2023-01-16T06:08:54;6.10;;;2.97;;
52320;SDS011;38261;54.090;13.382;2023-01-16T06:10:16;5.93;;;2.70;;
52320;SDS011;38261;54.090;13.382;2023-01-16T06:11:38;4.63;;;2.40;;
52320;SDS011;38261;54.090;13.382;2023-01-16T06:13:01;6.33;;;2.87;;
52320;SDS011;38261;54.090;13.382;2023-01-16T06:14:23;6.33;;;2.57;;
52320;SDS011;38261;54.090;13.382;2023-01-16T06:15:45;11.00;;;2.57;;
52320;SDS011;38261;54.090;13.382;2023-01-16T06:17:08;11.40;;;1.93;;
52320;SDS011;38261;54.090;13.382;2023-01-16T06:18:30;1.70;;;1.53;;
52320;SDS011;38261;54.090;13.382;2023-01-16T06:19:52;2.20;;;1.43;;
52320;SDS011;38261;54.090;13.382;2023-01-16T06:21:14;3.97;;;1.00;;
52320;SDS011;38261;54.090;13.382;2023-01-16T06:22:36;5.07;;;1.40;;
52320;SDS011;38261;54.090;13.382;2023-01-16T06:23:59;9.70;;;1.50;;
52320;SDS011;38261;54.090;13.382;2023-01-16T06:25:21;2.07;;;1.20;;
52320;SDS011;38261;54.090;13.382;2023-01-16T06:26:43;1.90;;;1.07;;
52320;SDS011;38261;54.090;13.382;2023-01-16T06:28:05;7.97;;;1.00;;
52320;SDS011;38261;54.090;13.382;2023-01-16T06:29:27;2.77;;;1.03;;
52320;SDS011;38261;54.090;13.382;2023-01-16T06:30:50;3.63;;;1.10;;
52320;SDS011;38261;54.090;13.382;2023-01-16T06:32:13;3.10;;;1.40;;
52320;SDS011;38261;54.090;13.382;2023-01-16T06:33:37;3.43;;;1.00;;
52320;SDS011;38261;54.090;13.382;2023-01-16T06:34:59;5.33;;;1.00;;
52320;SDS011;38261;54.090;13.382;2023-01-16T06:36:21;5.30;;;1.10;;
52320;SDS011;38261;54.090;13.382;2023-01-16T06:37:44;3.37;;;1.10;;
52320;SDS011;38261;54.090;13.382;2023-01-16T06:39:07;5.80;;;1.40;;
52320;SDS011;38261;54.090;13.382;2023-01-16T06:40:29;2.10;;;1.10;;
52320;SDS011;38261;54.090;13.382;2023-01-16T06:41:51;1.77;;;1.20;;
52320;SDS011;38261;54.090;13.382;2023-01-16T06:43:13;2.40;;;1.10;;
52320;SDS011;38261;54.090;13.382;2023-01-16T06:44:37;3.47;;;1.30;;
52320;SDS011;38261;54.090;13.382;2023-01-16T06:45:59;4.60;;;1.80;;
52320;SDS011;38261;54.090;13.382;2023-01-16T06:47:22;3.43;;;1.30;;
52320;SDS011;38261;54.090;13.382;2023-01-16T06:48:44;5.00;;;1.20;;
52320;SDS011;38261;54.090;13.382;2023-01-16T06:50:06;1.47;;;1.30;;
52320;SDS011;38261;54.090;13.382;2023-01-16T06:51:29;2.10;;;1.30;;
52320;SDS011;38261;54.090;13.382;2023-01-16T06:52:51;1.90;;;1.10;;
52320;SDS011;38261;54.090;13.382;2023-01-16T06:54:13;3.57;;;1.17;;
52320;SDS011;38261;54.090;13.382;2023-01-16T06:55:35;3.03;;;1.17;;
52320;SDS011;38261;54.090;13.382;2023-01-16T06:56:57;4.60;;;1.10;;
52320;SDS011;38261;54.090;13.382;2023-01-16T06:58:19;3.90;;;1.40;;
52320;SDS011;38261;54.090;13.382;2023-01-16T06:59:42;2.60;;;1.10;;
52320;SDS011;38261;54.090;13.382;2023-01-16T07:01:04;2.37;;;1.20;;
52320;SDS011;38261;54.090;13.382;2023-01-16T07:02:28;2.30;;;1.10;;
52320;SDS011;38261;54.090;13.382;2023-01-16T07:03:50;2.10;;;1.20;;
52320;SDS011;38261;54.090;13.382;2023-01-16T07:05:13;5.80;;;1.27;;
52320;SDS011;38261;54.090;13.382;2023-01-16T07:06:35;2.87;;;1.40;;
52320;SDS011;38261;54.090;13.382;2023-01-16T07:07:58;1.97;;;1.40;;
52320;SDS011;38261;54.090;13.382;2023-01-16T07:09:20;3.30;;;1.00;;
52320;SDS011;38261;54.090;13.382;2023-01-16T07:10:49;7.43;;;1.10;;
52320;SDS011;38261;54.090;13.382;2023-01-16T07:12:11;3.43;;;1.10;;
52320;SDS011;38261;54.090;13.382;2023-01-16T07:13:33;2.80;;;1.00;;
52320;SDS011;38261;54.090;13.382;2023-01-16T07:14:56;1.37;;;1.03;;
52320;SDS011;38261;54.090;13.382;2023-01-16T07:16:36;4.10;;;1.33;;
52320;SDS011;38261;54.090;13.382;2023-01-16T07:18:17;1.57;;;1.00;;
52320;SDS011;38261;54.090;13.382;2023-01-16T07:19:58;2.10;;;1.90;;
52320;SDS011;38261;54.090;13.382;2023-01-16T07:21:39;1.53;;;1.20;;
52320;SDS011;38261;54.090;13.382;2023-01-16T07:23:27;4.57;;;1.30;;
52320;SDS011;38261;54.090;13.382;2023-01-16T07:24:53;6.50;;;1.20;;
52320;SDS011;38261;54.090;13.382;2023-01-16T07:26:18;4.33;;;1.20;;
52320;SDS011;38261;54.090;13.382;2023-01-16T07:27:41;2.50;;;1.10;;
52320;SDS011;38261;54.090;13.382;2023-01-16T07:29:06;4.80;;;1.57;;
52320;SDS011;38261;54.090;13.382;2023-01-16T07:30:28;1.37;;;1.03;;
52320;SDS011;38261;54.090;13.382;2023-01-16T07:31:51;1.10;;;1.00;;
52320;SDS011;38261;54.090;13.382;2023-01-16T07:33:14;3.43;;;1.30;;
52320;SDS011;38261;54.090;13.382;2023-01-16T07:34:36;3.30;;;1.37;;
52320;SDS011;38261;54.090;13.382;2023-01-16T07:35:58;5.40;;;1.43;;
52320;SDS011;38261;54.090;13.382;2023-01-16T07:37:21;3.70;;;1.30;;
52320;SDS011;38261;54.090;13.382;2023-01-16T07:38:43;3.47;;;1.50;;
52320;SDS011;38261;54.090;13.382;2023-01-16T07:40:05;4.60;;;1.80;;
52320;SDS011;38261;54.090;13.382;2023-01-16T07:41:28;5.43;;;1.10;;
52320;SDS011;38261;54.090;13.382;2023-01-16T07:42:50;2.67;;;1.20;;
52320;SDS011;38261;54.090;13.382;2023-01-16T07:44:13;2.13;;;1.20;;
52320;SDS011;38261;54.090;13.382;2023-01-16T07:45:35;6.00;;;0.90;;
52320;SDS011;38261;54.090;13.382;2023-01-16T07:46:57;1.80;;;0.97;;
52320;SDS011;38261;54.090;13.382;2023-01-16T07:48:20;1.00;;;0.90;;
52320;SDS011;38261;54.090;13.382;2023-01-16T07:49:45;2.10;;;0.87;;
52320;SDS011;38261;54.090;13.382;2023-01-16T07:51:07;2.13;;;0.87;;
52320;SDS011;38261;54.090;13.382;2023-01-16T07:52:29;2.77;;;1.13;;
52320;SDS011;38261;54.090;13.382;2023-01-16T07:53:51;2.47;;;1.23;;
52320;SDS011;38261;54.090;13.382;2023-01-16T07:55:14;2.67;;;1.17;;
52320;SDS011;38261;54.090;13.382;2023-01-16T07:56:38;3.40;;;0.90;;
52320;SDS011;38261;54.090;13.382;2023-01-16T07:58:00;5.80;;;1.30;;
52320;SDS011;38261;54.090;13.382;2023-01-16T07:59:22;2.30;;;1.10;;
52320;SDS011;38261;54.090;13.382;2023-01-16T08:00:44;2.00;;;1.00;;
52320;SDS011;38261;54.090;13.382;2023-01-16T08:02:07;2.70;;;1.10;;
52320;SDS011;38261;54.090;13.382;2023-01-16T08:03:31;1.73;;;0.90;;
52320;SDS011;38261;54.090;13.382;2023-01-16T08:04:53;3.20;;;1.40;;
52320;SDS011;38261;54.090;13.382;2023-01-16T08:06:15;2.60;;;1.10;;
52320;SDS011;38261;54.090;13.382;2023-01-16T08:07:37;4.37;;;0.97;;
52320;SDS011;38261;54.090;13.382;2023-01-16T08:08:59;3.43;;;1.43;;
52320;SDS011;38261;54.090;13.382;2023-01-16T08:10:21;2.80;;;1.20;;
52320;SDS011;38261;54.090;13.382;2023-01-16T08:11:43;3.03;;;1.00;;
52320;SDS011;38261;54.090;13.382;2023-01-16T08:13:08;5.30;;;1.23;;
52320;SDS011;38261;54.090;13.382;2023-01-16T08:14:30;3.33;;;0.80;;
52320;SDS011;38261;54.090;13.382;2023-01-16T08:15:52;0.90;;;0.80;;
52320;SDS011;38261;54.090;13.382;2023-01-16T08:17:14;2.37;;;0.80;;
52320;SDS011;38261;54.090;13.382;2023-01-16T08:18:37;2.27;;;0.80;;
52320;SDS011;38261;54.090;13.382;2023-01-16T08:19:59;0.93;;;0.70;;
52320;SDS011;38261;54.090;13.382;2023-01-16T08:21:21;2.00;;;0.93;;
52320;SDS011;38261;54.090;13.382;2023-01-16T08:22:46;2.83;;;0.90;;
52320;SDS011;38261;54.090;13.382;2023-01-16T08:24:11;2.73;;;1.00;;
52320;SDS011;38261;54.090;13.382;2023-01-16T08:25:35;4.47;;;0.90;;
52320;SDS011;38261;54.090;13.382;2023-01-16T08:26:57;4.97;;;0.90;;
52320;SDS011;38261;54.090;13.382;2023-01-16T08:28:20;2.10;;;0.87;;
52320;SDS011;38261;54.090;13.382;2023-01-16T08:29:42;1.63;;;0.80;;
52320;SDS011;38261;54.090;13.382;2023-01-16T08:31:06;2.57;;;0.80;;
52320;SDS011;38261;54.090;13.382;2023-01-16T08:32:30;3.63;;;0.90;;
52320;SDS011;38261;54.090;13.382;2023-01-16T08:33:52;2.50;;;0.80;;
52320;SDS011;38261;54.090;13.382;2023-01-16T08:35:14;3.30;;;0.83;;
52320;SDS011;38261;54.090;13.382;2023-01-16T08:36:37;5.63;;;0.73;;
52320;SDS011;38261;54.090;13.382;2023-01-16T08:37:59;4.30;;;1.00;;
52320;SDS011;38261;54.090;13.382;2023-01-16T08:39:21;1.30;;;0.90;;
52320;SDS011;38261;54.090;13.382;2023-01-16T08:40:44;2.50;;;1.03;;
52320;SDS011;38261;54.090;13.382;2023-01-16T08:42:06;2.43;;;1.10;;
52320;SDS011;38261;54.090;13.382;2023-01-16T08:43:53;1.90;;;0.87;;
52320;SDS011;38261;54.090;13.382;2023-01-16T08:45:34;0.80;;;0.80;;
52320;SDS011;38261;54.090;13.382;2023-01-16T08:47:18;5.67;;;1.47;;
52320;SDS011;38261;54.090;13.382;2023-01-16T08:49:03;2.60;;;0.90;;
52320;SDS011;38261;54.090;13.382;2023-01-16T08:50:47;3.03;;;0.93;;
52320;SDS011;38261;54.090;13.382;2023-01-16T08:52:28;6.70;;;0.93;;
52320;SDS011;38261;54.090;13.382;2023-01-16T08:53:52;3.30;;;0.90;;
52320;SDS011;38261;54.090;13.382;2023-01-16T08:55:16;1.43;;;0.97;;
52320;SDS011;38261;54.090;13.382;2023-01-16T08:56:38;1.30;;;0.70;;
52320;SDS011;38261;54.090;13.382;2023-01-16T08:58:04;4.13;;;0.90;;
52320;SDS011;38261;54.090;13.382;2023-01-16T08:59:27;7.23;;;1.13;;
52320;SDS011;38261;54.090;13.382;2023-01-16T09:00:54;3.13;;;1.23;;
52320;SDS011;38261;54.090;13.382;2023-01-16T09:02:16;4.00;;;0.90;;
52320;SDS011;38261;54.090;13.382;2023-01-16T09:03:40;4.07;;;0.70;;
52320;SDS011;38261;54.090;13.382;2023-01-16T09:05:03;1.93;;;0.90;;
52320;SDS011;38261;54.090;13.382;2023-01-16T09:06:25;1.33;;;0.90;;
52320;SDS011;38261;54.090;13.382;2023-01-16T09:07:48;1.20;;;0.70;;
52320;SDS011;38261;54.090;13.382;2023-01-16T09:09:10;2.30;;;1.07;;
52320;SDS011;38261;54.090;13.382;2023-01-16T09:10:32;3.00;;;1.10;;